AirNav   Duncan Aviation - Near you to keep you flying
 
 864 users online  

F41 Ennis Municipal Airport
Ennis, Texas, USA

GOING TO ENNIS?


FAA INFORMATION EFFECTIVE 26 JANUARY 2023

Location

FAA Identifier: F41
Lat/Long: 32-19-46.9000N 096-39-50.0000W
32-19.781667N 096-39.833333W
32.3296944,-96.6638889
(estimated)
Elevation: 500.1 ft. / 152.4 m (surveyed)
Variation: 03E (2020)
From city: 2 miles W of ENNIS, TX
Time zone: UTC -6 (UTC -5 during Daylight Saving Time)
Zip code: 75119

Airport Operations

Airport use: Open to the public
Control tower: no
ARTCC: FORT WORTH CENTER
FSS: FORT WORTH FLIGHT SERVICE STATION
NOTAMs facility: FTW (NOTAM-D service available)
Attendance: MON-FRI 0800-1700
Wind indicator: lighted
Segmented circle: yes
Lights: ACTVT REIL RWY 16 & 34; PAPI RWY 16 & 34; MIRL RWY 16/34, PRESET LOW INTST - CTAF.
Beacon: white-green (lighted land airport)
Operates sunset to sunrise.

Airport Communications

CTAF: 122.9
REGIONAL APPROACH: 125.2
REGIONAL DEPARTURE: 125.2
EESAT STAR: 125.025 125.275
FINGR STAR: 124.3 125.275
GARLAND DP: 125.2
GREGS STAR: 118.1
JFRYE STAR: 118.1
KNEAD STAR: 135.975
LOADS STAR: 125.025 125.275
SLANT STAR: 125.025 125.275
SWVAY STAR: 135.975
YEAGR STAR: 125.025 125.275
WX AWOS-3 at JWY (15 nm NW): 119.575 (972-937-4747)
WX AWOS-3PT at LNC (15 nm N): 118.975 (972-227-0471)

Nearby radio navigation aids

VOR radial/distance  VOR name  Freq  Var
CQYr285/24.2CEDAR CREEK VORTAC114.8006E
CVEr154/35.8COWBOY VOR/DME116.2006E
TTTr144/37.6MAVERICK VOR/DME113.1006E

 
NDB name  Hdg/Dist  Freq  Var  ID
MESQUITE190/29.624803EPQF .--. --.- ..-.
PYRAMID314/36.741806EPYF .--. -.-- ..-.
CROSSROADS292/39.321502ECSZ -.-. ... --..

Airport Services

Fuel available: 100LL JET-A
100LL:FUEL SELF SERVE.
Parking: tiedowns
Airframe service: MAJOR
Powerplant service: MAJOR
Bottled oxygen: NONE
Bulk oxygen: NONE

Runway Information

Runway 16/34

Dimensions: 3999 x 50 ft. / 1219 x 15 m
Surface: asphalt, in good condition
Weight bearing capacity: 
Single wheel: 18.0
Runway edge lights: medium intensity
RUNWAY 16  RUNWAY 34
Latitude: 32-20.094650N32-19.469283N
Longitude: 096-39.957317W096-39.710687W
Elevation: 500.1 ft.477.0 ft.
Traffic pattern: rightleft
Runway heading: 158 magnetic, 161 true338 magnetic, 341 true
Displaced threshold: no255 ft.
Markings: basic, in good conditionbasic, in good condition
Visual slope indicator: 2-light PAPI on left (3.00 degrees glide path)2-light PAPI on left (3.00 degrees glide path)
Runway end identifier lights: yesyes
Touchdown point: yes, no lightsyes, no lights
Obstructions: 5 ft. gnd, 201 ft. from runway, 86 ft. left of centerline
RISING GROUND 0 TO 5 FT FROM 0-199 FT DSTC, 88 FT L.
27 ft. pline, marked, 1125 ft. from runway, 34:1 slope to clear
20 FT BRUSH, 0-130 FT DSTC, ACRS APCH.

Airport Ownership and Management from official FAA records

Ownership: Publicly-owned
Owner: CITY OF ENNIS
PO BOX 220
ENNIS, TX 75120-0220
Phone 972-875-1234
Manager: JERRY HAMMOCK
3002 W ENNIS AVE
ENNIS, TX 75119
Phone (972) 875-4279

Airport Operational Statistics

Aircraft based on the field: 9
Single engine airplanes: 9
    
Aircraft operations: avg 26/day *
80% local general aviation
19% transient general aviation
1% military
* for 12-month period ending 01 October 2022

Additional Remarks

BIRDS ON AND INVOF ARPT.
FOR CD CTC REGIONAL APCH AT 972-615-2799.

Instrument Procedures

NOTE: All procedures below are presented as PDF files. If you need a reader for these files, you should download the free Adobe Reader.

NOT FOR NAVIGATION. Please procure official charts for flight.
FAA instrument procedures published for use from 26 January 2023 at 0901Z to 23 February 2023 at 0900z.

 
STARs - Standard Terminal Arrivals
FINGR EIGHT **NEW**   2 pages: [1] [2] (503KB)
GREGS ONE   2 pages: [1] [2] (536KB)
HERBZ ONE (RNAV)   download (284KB)
JFRYE FIVE (RNAV)   download (254KB)
SLANT THREE (RNAV)   download
SWVAY FOUR (RNAV)   download
 
IAPs - Instrument Approach Procedures
VOR/DME-A   download
 
Departure Procedures
GARLAND FOUR **NEW**   2 pages: [1] [2]
KINGDOM THREE   2 pages: [1] [2]
KUSSO ONE (RNAV)   2 pages: [1] [2]
SWABR ONE (RNAV)   2 pages: [1] [2]
NOTE: Special Take-Off Minimums/Departure Procedures apply   download (326KB)

Other nearby airports with instrument procedures:

KJWY - Mid-Way Regional Airport (15 nm NW)
KLNC - Lancaster Regional Airport (15 nm N)
KCRS - C David Campbell Field-Corsicana Municipal Airport (23 nm SE)
KRBD - Dallas Executive Airport (24 nm NW)
KHQZ - Mesquite Metro Airport (26 nm N)
 
Loc | Ops | Rwys | IFR | FBO | Links
Com | Nav | Svcs | Stats | Notes

City of Fort Worth
 
Area around F41 (Ennis Municipal Airport)
 
Road maps at: MapQuest Bing Google
 
Aerial photo
WARNING: Photo may not be current or correct
Aerial photo of F41 (Ennis Municipal Airport)
Photo by Paul Reinders
Photo taken 07-Jan-2007

Do you have a better or more recent aerial photo of Ennis Municipal Airport that you would like to share? If so, please send us your photo.

 
Sectional chart

 
Airport distance calculator
Flying to Ennis Municipal Airport? Find the distance to fly.

From to F41

Sunrise and sunset
Times for 02-Feb-2023
 Local
(UTC-6)
 Zulu
(UTC)
Morning civil twilight06:5512:55
Sunrise07:2113:21
Sunset18:0024:00
Evening civil twilight18:2500:25

Current date and time
Zulu (UTC)  03-Feb-2023 05:07:19
Local (UTC-6)  02-Feb-2023 23:07:19
 
METAR
KJWY 
15nm NW 
030455Z AUTO 00000KT 4SM BR OVC090 01/00 A3045 RMK AO2 T00050004
KCRS 
22nm SE 
030453Z AUTO 34009KT 7SM BKN008 OVC017 02/01 A3045 RMK AO2 SLP315 T00220006 $
KRBD 
24nm NW 
030453Z AUTO 33004KT 5SM BR CLR 01/00 A3042 RMK AO2 SLP306 T00060000
KHQZ 
26nm N 
030455Z AUTO 33005KT 7SM OVC031 01/01 A3045 RMK AO1 T00100007
KINJ 
26nm SW 
030455Z AUTO 32004KT 7SM OVC027 01/01 A3044 RMK AO2 T00140014
TAF
KGKY 
30nm NW 
030251Z 0303/0324 35007KT P6SM BKN035 FM030400 34007KT 5SM BR FEW250 FM031300 35005KT P6SM SKC
KDAL 
33nm N 
030251Z 0303/0324 32007KT 6SM BR SCT006 OVC023 TEMPO 0303/0304 BKN006 FM030430 34007KT 5SM BR FEW250 FM031300 35005KT P6SM SKC
NOTAMs
Click for the latest NOTAMs
NOTAMs are issued by the DoD/FAA and will open in a separate window not controlled by AirNav.

 

 
 

FBO, Fuel Providers, and Aircraft Ground Support

  
 Business Name 
 
 Contact 
 
 Services / Description 
 
Fuel Prices
 
Comments
  
Hammock Aviation Services 972-875-4279
no information available

If you are affiliated with Hammock Aviation Services and would like to show here your services, contact info, web link, logo, and more, click here
100LL Jet A
SS $4.87 $4.84 
 Updated 26-Jan-2023
 
   write
SS=Self service
Update Fuel Prices
 

Would you like to see your business listed on this page?

 If your business provides an interesting product or service to pilots, flight crews, aircraft, or users of the Ennis Municipal Airport, you should consider listing it here.  To start the listing process, click on the button below
 
Add a business
 

Other Pages about Ennis Municipal Airport

www.ennis-texas.com/...
 
Update a link
 
Copyright © AirNav, LLC. All rights reserved. Privacy Policy  Contact